sensor_id;sensor_type;location;lat;lon;timestamp;P1;durP1;ratioP1;P2;durP2;ratioP2
71176;SDS011;58877;51.992;4.504;2022-07-06T00:01:15;1.35;;;1.35;;
71176;SDS011;58877;51.992;4.504;2022-07-06T00:03:41;1.33;;;1.33;;
71176;SDS011;58877;51.992;4.504;2022-07-06T00:06:06;1.40;;;1.40;;
71176;SDS011;58877;51.992;4.504;2022-07-06T00:08:32;1.10;;;1.10;;
71176;SDS011;58877;51.992;4.504;2022-07-06T00:10:58;1.40;;;1.40;;
71176;SDS011;58877;51.992;4.504;2022-07-06T00:13:23;1.42;;;1.42;;
71176;SDS011;58877;51.992;4.504;2022-07-06T00:15:49;1.20;;;1.20;;
71176;SDS011;58877;51.992;4.504;2022-07-06T00:18:14;1.29;;;1.29;;
71176;SDS011;58877;51.992;4.504;2022-07-06T00:20:41;1.23;;;1.23;;
71176;SDS011;58877;51.992;4.504;2022-07-06T00:23:07;1.35;;;1.35;;
71176;SDS011;58877;51.992;4.504;2022-07-06T00:25:32;1.55;;;1.55;;
71176;SDS011;58877;51.992;4.504;2022-07-06T00:27:58;1.44;;;1.44;;
71176;SDS011;58877;51.992;4.504;2022-07-06T00:30:23;1.54;;;1.54;;
71176;SDS011;58877;51.992;4.504;2022-07-06T00:32:48;1.45;;;1.45;;
71176;SDS011;58877;51.992;4.504;2022-07-06T00:35:14;1.38;;;1.38;;
71176;SDS011;58877;51.992;4.504;2022-07-06T00:37:40;1.26;;;1.26;;
71176;SDS011;58877;51.992;4.504;2022-07-06T00:40:05;1.43;;;1.43;;
71176;SDS011;58877;51.992;4.504;2022-07-06T00:42:39;1.47;;;1.47;;
71176;SDS011;58877;51.992;4.504;2022-07-06T00:45:09;1.52;;;1.49;;
71176;SDS011;58877;51.992;4.504;2022-07-06T00:47:36;1.71;;;1.66;;
71176;SDS011;58877;51.992;4.504;2022-07-06T00:50:03;1.55;;;1.47;;
71176;SDS011;58877;51.992;4.504;2022-07-06T00:52:46;1.55;;;1.47;;
71176;SDS011;58877;51.992;4.504;2022-07-06T00:55:15;1.64;;;1.55;;
71176;SDS011;58877;51.992;4.504;2022-07-06T00:57:42;1.48;;;1.40;;
71176;SDS011;58877;51.992;4.504;2022-07-06T01:00:09;1.54;;;1.47;;
71176;SDS011;58877;51.992;4.504;2022-07-06T01:02:36;1.44;;;1.38;;
71176;SDS011;58877;51.992;4.504;2022-07-06T01:05:06;1.35;;;1.30;;
71176;SDS011;58877;51.992;4.504;2022-07-06T01:07:34;1.37;;;1.34;;
71176;SDS011;58877;51.992;4.504;2022-07-06T01:10:02;1.39;;;1.39;;
71176;SDS011;58877;51.992;4.504;2022-07-06T01:12:29;1.47;;;1.46;;
71176;SDS011;58877;51.992;4.504;2022-07-06T01:14:56;1.53;;;1.53;;
71176;SDS011;58877;51.992;4.504;2022-07-06T01:17:22;1.25;;;1.21;;
71176;SDS011;58877;51.992;4.504;2022-07-06T01:19:48;1.32;;;1.28;;
71176;SDS011;58877;51.992;4.504;2022-07-06T01:22:14;1.49;;;1.43;;
71176;SDS011;58877;51.992;4.504;2022-07-06T01:24:40;1.66;;;1.60;;
71176;SDS011;58877;51.992;4.504;2022-07-06T01:27:06;1.24;;;1.20;;
71176;SDS011;58877;51.992;4.504;2022-07-06T01:29:33;1.25;;;1.21;;
71176;SDS011;58877;51.992;4.504;2022-07-06T01:31:59;1.30;;;1.26;;
71176;SDS011;58877;51.992;4.504;2022-07-06T01:34:25;1.33;;;1.29;;
71176;SDS011;58877;51.992;4.504;2022-07-06T01:36:51;1.42;;;1.37;;
71176;SDS011;58877;51.992;4.504;2022-07-06T01:39:18;1.39;;;1.35;;
71176;SDS011;58877;51.992;4.504;2022-07-06T01:41:44;1.58;;;1.54;;
71176;SDS011;58877;51.992;4.504;2022-07-06T01:44:10;1.50;;;1.44;;
71176;SDS011;58877;51.992;4.504;2022-07-06T01:46:36;1.17;;;1.12;;
71176;SDS011;58877;51.992;4.504;2022-07-06T01:49:03;1.42;;;1.36;;
71176;SDS011;58877;51.992;4.504;2022-07-06T01:51:29;1.25;;;1.23;;
71176;SDS011;58877;51.992;4.504;2022-07-06T01:53:55;1.28;;;1.27;;
71176;SDS011;58877;51.992;4.504;2022-07-06T01:56:21;1.26;;;1.26;;
71176;SDS011;58877;51.992;4.504;2022-07-06T01:58:47;1.31;;;1.31;;
71176;SDS011;58877;51.992;4.504;2022-07-06T02:01:14;1.33;;;1.33;;
71176;SDS011;58877;51.992;4.504;2022-07-06T02:03:44;1.41;;;1.41;;
71176;SDS011;58877;51.992;4.504;2022-07-06T02:06:10;1.33;;;1.33;;
71176;SDS011;58877;51.992;4.504;2022-07-06T02:08:39;1.25;;;1.25;;
71176;SDS011;58877;51.992;4.504;2022-07-06T02:11:06;1.29;;;1.29;;
71176;SDS011;58877;51.992;4.504;2022-07-06T02:13:33;1.34;;;1.34;;
71176;SDS011;58877;51.992;4.504;2022-07-06T02:15:59;1.31;;;1.31;;
71176;SDS011;58877;51.992;4.504;2022-07-06T02:18:25;1.24;;;1.24;;
71176;SDS011;58877;51.992;4.504;2022-07-06T02:20:51;1.34;;;1.34;;
71176;SDS011;58877;51.992;4.504;2022-07-06T02:23:16;1.39;;;1.39;;
71176;SDS011;58877;51.992;4.504;2022-07-06T02:25:42;1.35;;;1.35;;
71176;SDS011;58877;51.992;4.504;2022-07-06T02:28:08;1.31;;;1.30;;
71176;SDS011;58877;51.992;4.504;2022-07-06T02:30:33;1.38;;;1.37;;
71176;SDS011;58877;51.992;4.504;2022-07-06T02:32:59;1.40;;;1.39;;
71176;SDS011;58877;51.992;4.504;2022-07-06T02:35:24;1.36;;;1.33;;
71176;SDS011;58877;51.992;4.504;2022-07-06T02:37:50;1.20;;;1.19;;
71176;SDS011;58877;51.992;4.504;2022-07-06T02:40:16;1.29;;;1.29;;
71176;SDS011;58877;51.992;4.504;2022-07-06T02:42:41;1.19;;;1.19;;
71176;SDS011;58877;51.992;4.504;2022-07-06T02:45:07;1.53;;;1.53;;
71176;SDS011;58877;51.992;4.504;2022-07-06T02:47:33;1.58;;;1.58;;
71176;SDS011;58877;51.992;4.504;2022-07-06T02:49:58;1.48;;;1.48;;
71176;SDS011;58877;51.992;4.504;2022-07-06T02:52:24;1.51;;;1.51;;
71176;SDS011;58877;51.992;4.504;2022-07-06T02:54:50;1.40;;;1.38;;
71176;SDS011;58877;51.992;4.504;2022-07-06T02:57:16;1.55;;;1.51;;
71176;SDS011;58877;51.992;4.504;2022-07-06T02:59:42;1.66;;;1.62;;
71176;SDS011;58877;51.992;4.504;2022-07-06T03:02:09;1.62;;;1.58;;
71176;SDS011;58877;51.992;4.504;2022-07-06T03:04:34;1.40;;;1.39;;
71176;SDS011;58877;51.992;4.504;2022-07-06T03:07:00;1.61;;;1.60;;
71176;SDS011;58877;51.992;4.504;2022-07-06T03:09:25;1.51;;;1.51;;
71176;SDS011;58877;51.992;4.504;2022-07-06T03:11:51;1.39;;;1.39;;
71176;SDS011;58877;51.992;4.504;2022-07-06T03:14:17;1.33;;;1.33;;
71176;SDS011;58877;51.992;4.504;2022-07-06T03:16:43;1.45;;;1.45;;
71176;SDS011;58877;51.992;4.504;2022-07-06T03:19:08;1.42;;;1.42;;
71176;SDS011;58877;51.992;4.504;2022-07-06T03:21:34;1.50;;;1.50;;
71176;SDS011;58877;51.992;4.504;2022-07-06T03:24:00;1.49;;;1.49;;
71176;SDS011;58877;51.992;4.504;2022-07-06T03:26:25;1.60;;;1.60;;
71176;SDS011;58877;51.992;4.504;2022-07-06T03:28:51;1.64;;;1.64;;
71176;SDS011;58877;51.992;4.504;2022-07-06T03:31:16;1.33;;;1.33;;
71176;SDS011;58877;51.992;4.504;2022-07-06T03:33:42;1.54;;;1.54;;
71176;SDS011;58877;51.992;4.504;2022-07-06T03:36:08;1.54;;;1.54;;
71176;SDS011;58877;51.992;4.504;2022-07-06T03:38:34;1.95;;;1.95;;
71176;SDS011;58877;51.992;4.504;2022-07-06T03:41:00;1.92;;;1.92;;
71176;SDS011;58877;51.992;4.504;2022-07-06T03:43:26;1.73;;;1.73;;
71176;SDS011;58877;51.992;4.504;2022-07-06T03:45:51;1.77;;;1.77;;
71176;SDS011;58877;51.992;4.504;2022-07-06T03:48:17;1.96;;;1.96;;
71176;SDS011;58877;51.992;4.504;2022-07-06T03:50:42;1.93;;;1.93;;
71176;SDS011;58877;51.992;4.504;2022-07-06T03:53:08;1.73;;;1.73;;
71176;SDS011;58877;51.992;4.504;2022-07-06T03:55:34;1.82;;;1.82;;
71176;SDS011;58877;51.992;4.504;2022-07-06T03:57:59;2.08;;;2.08;;
71176;SDS011;58877;51.992;4.504;2022-07-06T04:00:25;1.98;;;1.98;;
71176;SDS011;58877;51.992;4.504;2022-07-06T04:02:50;1.84;;;1.84;;
71176;SDS011;58877;51.992;4.504;2022-07-06T04:05:16;1.94;;;1.94;;
71176;SDS011;58877;51.992;4.504;2022-07-06T04:07:46;2.03;;;2.03;;
71176;SDS011;58877;51.992;4.504;2022-07-06T04:10:13;1.85;;;1.85;;
71176;SDS011;58877;51.992;4.504;2022-07-06T04:12:42;1.82;;;1.82;;
71176;SDS011;58877;51.992;4.504;2022-07-06T04:15:09;1.79;;;1.79;;
71176;SDS011;58877;51.992;4.504;2022-07-06T04:17:36;1.74;;;1.74;;
71176;SDS011;58877;51.992;4.504;2022-07-06T04:20:17;2.01;;;2.01;;
71176;SDS011;58877;51.992;4.504;2022-07-06T04:22:43;1.86;;;1.86;;
71176;SDS011;58877;51.992;4.504;2022-07-06T04:25:09;1.90;;;1.90;;
71176;SDS011;58877;51.992;4.504;2022-07-06T04:27:35;1.90;;;1.90;;
71176;SDS011;58877;51.992;4.504;2022-07-06T04:30:01;1.71;;;1.71;;
71176;SDS011;58877;51.992;4.504;2022-07-06T04:32:30;1.76;;;1.76;;
71176;SDS011;58877;51.992;4.504;2022-07-06T04:34:56;1.70;;;1.70;;
71176;SDS011;58877;51.992;4.504;2022-07-06T04:37:21;2.01;;;2.01;;
71176;SDS011;58877;51.992;4.504;2022-07-06T04:39:48;1.86;;;1.86;;
71176;SDS011;58877;51.992;4.504;2022-07-06T04:42:22;1.67;;;1.67;;
71176;SDS011;58877;51.992;4.504;2022-07-06T04:44:50;1.63;;;1.63;;
71176;SDS011;58877;51.992;4.504;2022-07-06T04:50:24;1.46;;;1.46;;
71176;SDS011;58877;51.992;4.504;2022-07-06T04:53:30;1.48;;;1.48;;
71176;SDS011;58877;51.992;4.504;2022-07-06T04:56:26;1.55;;;1.55;;
71176;SDS011;58877;51.992;4.504;2022-07-06T04:58:52;1.62;;;1.62;;
71176;SDS011;58877;51.992;4.504;2022-07-06T05:01:17;1.41;;;1.41;;
71176;SDS011;58877;51.992;4.504;2022-07-06T05:03:43;1.44;;;1.43;;
71176;SDS011;58877;51.992;4.504;2022-07-06T05:06:13;1.50;;;1.50;;
71176;SDS011;58877;51.992;4.504;2022-07-06T05:08:53;1.27;;;1.27;;
71176;SDS011;58877;51.992;4.504;2022-07-06T05:15:26;1.61;;;1.61;;
71176;SDS011;58877;51.992;4.504;2022-07-06T05:18:27;1.38;;;1.38;;
71176;SDS011;58877;51.992;4.504;2022-07-06T05:21:28;1.69;;;1.68;;
71176;SDS011;58877;51.992;4.504;2022-07-06T05:23:59;1.66;;;1.66;;
71176;SDS011;58877;51.992;4.504;2022-07-06T05:26:59;1.61;;;1.61;;
71176;SDS011;58877;51.992;4.504;2022-07-06T05:29:54;1.67;;;1.67;;
71176;SDS011;58877;51.992;4.504;2022-07-06T05:36:16;1.55;;;1.51;;
71176;SDS011;58877;51.992;4.504;2022-07-06T05:38:50;1.77;;;1.75;;
71176;SDS011;58877;51.992;4.504;2022-07-06T05:41:49;1.75;;;1.75;;
71176;SDS011;58877;51.992;4.504;2022-07-06T05:47:51;1.69;;;1.66;;
71176;SDS011;58877;51.992;4.504;2022-07-06T05:53:50;1.32;;;1.31;;
71176;SDS011;58877;51.992;4.504;2022-07-06T05:56:45;1.26;;;1.26;;
71176;SDS011;58877;51.992;4.504;2022-07-06T05:59:11;1.16;;;1.16;;
71176;SDS011;58877;51.992;4.504;2022-07-06T06:01:37;0.98;;;0.98;;
71176;SDS011;58877;51.992;4.504;2022-07-06T06:04:03;1.05;;;1.05;;
71176;SDS011;58877;51.992;4.504;2022-07-06T06:06:28;0.95;;;0.95;;
71176;SDS011;58877;51.992;4.504;2022-07-06T06:08:56;1.02;;;1.02;;
71176;SDS011;58877;51.992;4.504;2022-07-06T06:11:22;0.88;;;0.88;;
71176;SDS011;58877;51.992;4.504;2022-07-06T06:13:48;0.95;;;0.95;;
71176;SDS011;58877;51.992;4.504;2022-07-06T06:16:14;1.00;;;1.00;;
71176;SDS011;58877;51.992;4.504;2022-07-06T06:18:40;1.02;;;1.02;;
71176;SDS011;58877;51.992;4.504;2022-07-06T06:21:07;1.02;;;0.98;;
71176;SDS011;58877;51.992;4.504;2022-07-06T06:23:32;0.75;;;0.72;;
71176;SDS011;58877;51.992;4.504;2022-07-06T06:25:58;0.80;;;0.80;;
71176;SDS011;58877;51.992;4.504;2022-07-06T06:28:24;0.83;;;0.83;;
71176;SDS011;58877;51.992;4.504;2022-07-06T06:30:49;0.89;;;0.89;;
71176;SDS011;58877;51.992;4.504;2022-07-06T06:33:18;0.91;;;0.91;;
71176;SDS011;58877;51.992;4.504;2022-07-06T06:35:50;0.82;;;0.82;;
71176;SDS011;58877;51.992;4.504;2022-07-06T06:38:18;0.88;;;0.85;;
71176;SDS011;58877;51.992;4.504;2022-07-06T06:40:45;0.78;;;0.74;;
71176;SDS011;58877;51.992;4.504;2022-07-06T06:43:11;0.91;;;0.86;;
71176;SDS011;58877;51.992;4.504;2022-07-06T06:45:37;0.82;;;0.77;;
71176;SDS011;58877;51.992;4.504;2022-07-06T06:48:03;0.92;;;0.88;;
71176;SDS011;58877;51.992;4.504;2022-07-06T06:50:29;0.81;;;0.76;;
71176;SDS011;58877;51.992;4.504;2022-07-06T06:52:55;0.84;;;0.79;;
71176;SDS011;58877;51.992;4.504;2022-07-06T06:55:21;0.85;;;0.79;;
71176;SDS011;58877;51.992;4.504;2022-07-06T06:57:47;0.90;;;0.85;;
71176;SDS011;58877;51.992;4.504;2022-07-06T07:00:13;1.02;;;0.98;;
71176;SDS011;58877;51.992;4.504;2022-07-06T07:02:40;0.95;;;0.90;;
71176;SDS011;58877;51.992;4.504;2022-07-06T07:05:06;0.80;;;0.75;;
71176;SDS011;58877;51.992;4.504;2022-07-06T07:07:34;0.91;;;0.86;;
71176;SDS011;58877;51.992;4.504;2022-07-06T07:10:00;0.92;;;0.87;;
71176;SDS011;58877;51.992;4.504;2022-07-06T07:12:26;0.90;;;0.85;;
71176;SDS011;58877;51.992;4.504;2022-07-06T07:14:51;0.75;;;0.70;;
71176;SDS011;58877;51.992;4.504;2022-07-06T07:17:17;0.80;;;0.74;;
71176;SDS011;58877;51.992;4.504;2022-07-06T07:19:43;0.72;;;0.66;;
71176;SDS011;58877;51.992;4.504;2022-07-06T07:22:09;0.76;;;0.69;;
71176;SDS011;58877;51.992;4.504;2022-07-06T07:24:35;0.88;;;0.80;;
71176;SDS011;58877;51.992;4.504;2022-07-06T07:27:01;0.66;;;0.60;;
71176;SDS011;58877;51.992;4.504;2022-07-06T07:29:27;0.87;;;0.79;;
71176;SDS011;58877;51.992;4.504;2022-07-06T07:31:52;0.84;;;0.76;;
71176;SDS011;58877;51.992;4.504;2022-07-06T07:34:18;0.71;;;0.65;;
71176;SDS011;58877;51.992;4.504;2022-07-06T07:36:44;0.85;;;0.77;;
71176;SDS011;58877;51.992;4.504;2022-07-06T07:39:10;0.72;;;0.66;;
71176;SDS011;58877;51.992;4.504;2022-07-06T07:41:36;0.82;;;0.75;;
71176;SDS011;58877;51.992;4.504;2022-07-06T07:44:02;0.59;;;0.54;;
71176;SDS011;58877;51.992;4.504;2022-07-06T07:46:28;0.68;;;0.62;;
71176;SDS011;58877;51.992;4.504;2022-07-06T07:48:53;0.57;;;0.52;;
71176;SDS011;58877;51.992;4.504;2022-07-06T07:51:19;0.66;;;0.61;;
71176;SDS011;58877;51.992;4.504;2022-07-06T07:53:45;0.69;;;0.64;;
71176;SDS011;58877;51.992;4.504;2022-07-06T07:56:11;0.81;;;0.75;;
71176;SDS011;58877;51.992;4.504;2022-07-06T07:58:37;0.73;;;0.69;;
71176;SDS011;58877;51.992;4.504;2022-07-06T08:01:03;0.60;;;0.56;;
71176;SDS011;58877;51.992;4.504;2022-07-06T08:03:29;0.68;;;0.64;;
71176;SDS011;58877;51.992;4.504;2022-07-06T08:05:56;0.63;;;0.59;;
71176;SDS011;58877;51.992;4.504;2022-07-06T08:08:22;0.59;;;0.54;;
71176;SDS011;58877;51.992;4.504;2022-07-06T08:10:48;0.67;;;0.62;;
71176;SDS011;58877;51.992;4.504;2022-07-06T08:13:17;0.60;;;0.55;;
71176;SDS011;58877;51.992;4.504;2022-07-06T08:15:42;0.67;;;0.62;;
71176;SDS011;58877;51.992;4.504;2022-07-06T08:18:08;0.64;;;0.59;;
71176;SDS011;58877;51.992;4.504;2022-07-06T08:20:37;0.50;;;0.48;;
71176;SDS011;58877;51.992;4.504;2022-07-06T08:23:03;0.60;;;0.54;;
71176;SDS011;58877;51.992;4.504;2022-07-06T08:25:30;0.57;;;0.51;;
71176;SDS011;58877;51.992;4.504;2022-07-06T08:27:56;0.45;;;0.40;;
71176;SDS011;58877;51.992;4.504;2022-07-06T08:30:22;0.54;;;0.49;;
71176;SDS011;58877;51.992;4.504;2022-07-06T08:32:48;0.64;;;0.57;;
71176;SDS011;58877;51.992;4.504;2022-07-06T08:35:14;0.66;;;0.59;;
71176;SDS011;58877;51.992;4.504;2022-07-06T08:37:40;0.54;;;0.48;;
71176;SDS011;58877;51.992;4.504;2022-07-06T08:40:06;0.54;;;0.48;;
71176;SDS011;58877;51.992;4.504;2022-07-06T08:42:34;0.60;;;0.54;;
71176;SDS011;58877;51.992;4.504;2022-07-06T08:45:02;0.64;;;0.58;;
71176;SDS011;58877;51.992;4.504;2022-07-06T08:47:30;0.60;;;0.54;;
71176;SDS011;58877;51.992;4.504;2022-07-06T08:49:56;0.70;;;0.63;;
71176;SDS011;58877;51.992;4.504;2022-07-06T08:52:23;0.58;;;0.52;;
71176;SDS011;58877;51.992;4.504;2022-07-06T08:54:50;0.63;;;0.56;;
71176;SDS011;58877;51.992;4.504;2022-07-06T08:57:22;0.78;;;0.69;;
71176;SDS011;58877;51.992;4.504;2022-07-06T08:59:50;0.74;;;0.66;;
71176;SDS011;58877;51.992;4.504;2022-07-06T09:02:16;0.70;;;0.62;;
71176;SDS011;58877;51.992;4.504;2022-07-06T09:04:43;0.73;;;0.64;;
71176;SDS011;58877;51.992;4.504;2022-07-06T09:07:09;0.71;;;0.62;;
71176;SDS011;58877;51.992;4.504;2022-07-06T09:09:36;0.62;;;0.55;;
71176;SDS011;58877;51.992;4.504;2022-07-06T09:12:03;0.81;;;0.72;;
71176;SDS011;58877;51.992;4.504;2022-07-06T09:14:29;0.79;;;0.71;;
71176;SDS011;58877;51.992;4.504;2022-07-06T09:17:01;0.79;;;0.71;;
71176;SDS011;58877;51.992;4.504;2022-07-06T09:19:30;0.95;;;0.86;;
71176;SDS011;58877;51.992;4.504;2022-07-06T09:21:57;0.75;;;0.68;;
71176;SDS011;58877;51.992;4.504;2022-07-06T09:24:23;0.70;;;0.64;;
71176;SDS011;58877;51.992;4.504;2022-07-06T09:26:52;0.82;;;0.74;;
71176;SDS011;58877;51.992;4.504;2022-07-06T09:29:30;0.86;;;0.77;;
71176;SDS011;58877;51.992;4.504;2022-07-06T09:34:45;0.85;;;0.77;;
71176;SDS011;58877;51.992;4.504;2022-07-06T09:37:12;0.76;;;0.69;;
71176;SDS011;58877;51.992;4.504;2022-07-06T09:39:39;0.93;;;0.85;;
71176;SDS011;58877;51.992;4.504;2022-07-06T09:42:06;0.89;;;0.81;;
71176;SDS011;58877;51.992;4.504;2022-07-06T09:44:36;1.04;;;0.94;;
71176;SDS011;58877;51.992;4.504;2022-07-06T09:47:05;0.98;;;0.89;;
71176;SDS011;58877;51.992;4.504;2022-07-06T09:49:39;1.13;;;1.03;;
71176;SDS011;58877;51.992;4.504;2022-07-06T09:52:06;0.92;;;0.83;;
71176;SDS011;58877;51.992;4.504;2022-07-06T09:54:35;1.01;;;0.92;;
71176;SDS011;58877;51.992;4.504;2022-07-06T09:57:03;1.03;;;0.94;;
71176;SDS011;58877;51.992;4.504;2022-07-06T09:59:31;1.05;;;0.96;;
71176;SDS011;58877;51.992;4.504;2022-07-06T10:02:02;1.16;;;1.05;;
71176;SDS011;58877;51.992;4.504;2022-07-06T10:04:32;1.17;;;1.05;;
71176;SDS011;58877;51.992;4.504;2022-07-06T10:06:59;1.17;;;1.03;;
71176;SDS011;58877;51.992;4.504;2022-07-06T10:09:26;0.94;;;0.83;;
71176;SDS011;58877;51.992;4.504;2022-07-06T10:11:58;0.92;;;0.82;;
71176;SDS011;58877;51.992;4.504;2022-07-06T10:24:30;1.06;;;0.95;;
71176;SDS011;58877;51.992;4.504;2022-07-06T10:27:18;0.96;;;0.86;;
71176;SDS011;58877;51.992;4.504;2022-07-06T10:30:02;1.20;;;1.08;;
71176;SDS011;58877;51.992;4.504;2022-07-06T10:32:37;1.14;;;1.02;;
71176;SDS011;58877;51.992;4.504;2022-07-06T10:51:50;1.24;;;1.12;;
71176;SDS011;58877;51.992;4.504;2022-07-06T10:54:22;1.12;;;1.02;;
71176;SDS011;58877;51.992;4.504;2022-07-06T10:57:11;1.01;;;0.94;;
71176;SDS011;58877;51.992;4.504;2022-07-06T11:06:34;1.11;;;1.01;;
71176;SDS011;58877;51.992;4.504;2022-07-06T11:09:31;0.93;;;0.84;;
71176;SDS011;58877;51.992;4.504;2022-07-06T11:15:09;1.49;;;1.36;;
71176;SDS011;58877;51.992;4.504;2022-07-06T11:30:32;2.18;;;1.99;;
71176;SDS011;58877;51.992;4.504;2022-07-06T11:36:45;1.89;;;1.65;;
71176;SDS011;58877;51.992;4.504;2022-07-06T11:39:17;1.71;;;1.53;;
71176;SDS011;58877;51.992;4.504;2022-07-06T11:42:19;1.66;;;1.50;;
71176;SDS011;58877;51.992;4.504;2022-07-06T11:45:08;1.68;;;1.52;;
71176;SDS011;58877;51.992;4.504;2022-07-06T11:48:11;1.62;;;1.49;;
71176;SDS011;58877;51.992;4.504;2022-07-06T11:50:39;1.85;;;1.69;;
71176;SDS011;58877;51.992;4.504;2022-07-06T11:53:05;1.86;;;1.68;;
71176;SDS011;58877;51.992;4.504;2022-07-06T11:55:39;1.94;;;1.76;;
71176;SDS011;58877;51.992;4.504;2022-07-06T11:58:05;1.82;;;1.66;;
71176;SDS011;58877;51.992;4.504;2022-07-06T12:00:41;1.95;;;1.80;;
71176;SDS011;58877;51.992;4.504;2022-07-06T12:03:22;1.73;;;1.61;;
71176;SDS011;58877;51.992;4.504;2022-07-06T12:05:52;1.96;;;1.83;;
71176;SDS011;58877;51.992;4.504;2022-07-06T12:08:23;1.60;;;1.53;;
71176;SDS011;58877;51.992;4.504;2022-07-06T12:14:01;1.46;;;1.41;;
71176;SDS011;58877;51.992;4.504;2022-07-06T12:17:18;1.45;;;1.43;;
71176;SDS011;58877;51.992;4.504;2022-07-06T12:20:46;1.49;;;1.44;;
71176;SDS011;58877;51.992;4.504;2022-07-06T12:26:22;1.45;;;1.45;;
71176;SDS011;58877;51.992;4.504;2022-07-06T12:32:02;1.28;;;1.28;;
71176;SDS011;58877;51.992;4.504;2022-07-06T12:35:11;1.57;;;1.57;;
71176;SDS011;58877;51.992;4.504;2022-07-06T12:40:52;1.46;;;1.46;;
71176;SDS011;58877;51.992;4.504;2022-07-06T12:43:34;1.63;;;1.63;;
71176;SDS011;58877;51.992;4.504;2022-07-06T12:46:34;1.61;;;1.61;;
71176;SDS011;58877;51.992;4.504;2022-07-06T12:49:34;1.80;;;1.80;;
71176;SDS011;58877;51.992;4.504;2022-07-06T12:57:21;1.67;;;1.67;;
71176;SDS011;58877;51.992;4.504;2022-07-06T13:02:31;1.68;;;1.68;;
71176;SDS011;58877;51.992;4.504;2022-07-06T13:05:06;1.80;;;1.80;;
71176;SDS011;58877;51.992;4.504;2022-07-06T13:10:55;2.00;;;2.00;;
71176;SDS011;58877;51.992;4.504;2022-07-06T13:13:49;2.11;;;2.11;;
71176;SDS011;58877;51.992;4.504;2022-07-06T13:16:26;1.92;;;1.92;;
71176;SDS011;58877;51.992;4.504;2022-07-06T13:19:01;1.96;;;1.96;;
71176;SDS011;58877;51.992;4.504;2022-07-06T13:21:32;1.90;;;1.90;;
71176;SDS011;58877;51.992;4.504;2022-07-06T13:24:09;1.74;;;1.74;;
71176;SDS011;58877;51.992;4.504;2022-07-06T13:26:37;2.01;;;2.01;;
71176;SDS011;58877;51.992;4.504;2022-07-06T13:29:23;1.97;;;1.97;;
71176;SDS011;58877;51.992;4.504;2022-07-06T13:32:33;2.49;;;2.49;;
71176;SDS011;58877;51.992;4.504;2022-07-06T13:37:55;2.30;;;2.30;;
71176;SDS011;58877;51.992;4.504;2022-07-06T13:40:27;2.11;;;2.11;;
71176;SDS011;58877;51.992;4.504;2022-07-06T13:43:01;2.44;;;2.44;;
71176;SDS011;58877;51.992;4.504;2022-07-06T13:45:47;2.23;;;2.23;;
71176;SDS011;58877;51.992;4.504;2022-07-06T13:48:17;2.68;;;2.68;;
71176;SDS011;58877;51.992;4.504;2022-07-06T13:50:44;2.57;;;2.57;;
71176;SDS011;58877;51.992;4.504;2022-07-06T13:53:11;2.67;;;2.67;;
71176;SDS011;58877;51.992;4.504;2022-07-06T13:55:39;2.59;;;2.59;;
71176;SDS011;58877;51.992;4.504;2022-07-06T13:58:12;2.63;;;2.63;;
71176;SDS011;58877;51.992;4.504;2022-07-06T14:00:48;2.65;;;2.65;;
71176;SDS011;58877;51.992;4.504;2022-07-06T14:03:20;2.92;;;2.92;;
71176;SDS011;58877;51.992;4.504;2022-07-06T14:05:57;3.50;;;3.50;;
71176;SDS011;58877;51.992;4.504;2022-07-06T14:08:30;4.21;;;4.21;;
71176;SDS011;58877;51.992;4.504;2022-07-06T14:10:58;4.08;;;4.08;;
71176;SDS011;58877;51.992;4.504;2022-07-06T14:13:46;4.68;;;4.68;;
71176;SDS011;58877;51.992;4.504;2022-07-06T14:16:13;4.36;;;4.36;;
71176;SDS011;58877;51.992;4.504;2022-07-06T14:18:39;4.17;;;4.17;;
71176;SDS011;58877;51.992;4.504;2022-07-06T14:21:22;3.89;;;3.89;;
71176;SDS011;58877;51.992;4.504;2022-07-06T14:30:35;4.26;;;4.26;;
71176;SDS011;58877;51.992;4.504;2022-07-06T14:33:15;3.99;;;3.99;;
71176;SDS011;58877;51.992;4.504;2022-07-06T14:36:06;4.52;;;4.52;;
71176;SDS011;58877;51.992;4.504;2022-07-06T14:39:05;4.48;;;4.48;;
71176;SDS011;58877;51.992;4.504;2022-07-06T15:00:17;5.89;;;5.89;;
71176;SDS011;58877;51.992;4.504;2022-07-06T15:20:30;4.63;;;4.63;;
71176;SDS011;58877;51.992;4.504;2022-07-06T15:27:29;4.13;;;4.13;;
71176;SDS011;58877;51.992;4.504;2022-07-06T15:51:55;2.98;;;2.98;;
71176;SDS011;58877;51.992;4.504;2022-07-06T15:55:25;3.23;;;3.23;;
71176;SDS011;58877;51.992;4.504;2022-07-06T16:09:09;1.67;;;1.67;;
71176;SDS011;58877;51.992;4.504;2022-07-06T16:12:36;1.93;;;1.93;;
71176;SDS011;58877;51.992;4.504;2022-07-06T16:15:52;1.85;;;1.85;;
71176;SDS011;58877;51.992;4.504;2022-07-06T16:21:20;2.04;;;2.04;;
71176;SDS011;58877;51.992;4.504;2022-07-06T16:26:59;1.85;;;1.85;;
71176;SDS011;58877;51.992;4.504;2022-07-06T16:37:06;2.19;;;2.19;;
71176;SDS011;58877;51.992;4.504;2022-07-06T16:39:48;2.37;;;2.37;;
71176;SDS011;58877;51.992;4.504;2022-07-06T16:42:45;1.86;;;1.86;;
71176;SDS011;58877;51.992;4.504;2022-07-06T16:45:54;1.98;;;1.98;;
71176;SDS011;58877;51.992;4.504;2022-07-06T16:54:55;2.21;;;2.21;;
71176;SDS011;58877;51.992;4.504;2022-07-06T16:57:28;2.06;;;2.06;;
71176;SDS011;58877;51.992;4.504;2022-07-06T17:00:02;2.07;;;2.07;;
71176;SDS011;58877;51.992;4.504;2022-07-06T17:02:35;2.32;;;2.32;;
71176;SDS011;58877;51.992;4.504;2022-07-06T17:05:06;2.41;;;2.41;;
71176;SDS011;58877;51.992;4.504;2022-07-06T17:07:37;2.38;;;2.38;;
71176;SDS011;58877;51.992;4.504;2022-07-06T17:10:11;2.60;;;2.60;;
71176;SDS011;58877;51.992;4.504;2022-07-06T17:12:45;2.39;;;2.39;;
71176;SDS011;58877;51.992;4.504;2022-07-06T17:15:16;2.54;;;2.54;;
71176;SDS011;58877;51.992;4.504;2022-07-06T17:17:50;2.86;;;2.86;;
71176;SDS011;58877;51.992;4.504;2022-07-06T17:20:27;2.59;;;2.59;;
71176;SDS011;58877;51.992;4.504;2022-07-06T17:23:17;2.49;;;2.49;;
71176;SDS011;58877;51.992;4.504;2022-07-06T17:25:48;2.36;;;2.36;;
71176;SDS011;58877;51.992;4.504;2022-07-06T17:28:24;2.10;;;2.10;;
71176;SDS011;58877;51.992;4.504;2022-07-06T17:31:00;2.27;;;2.27;;
71176;SDS011;58877;51.992;4.504;2022-07-06T17:33:36;2.21;;;2.21;;
71176;SDS011;58877;51.992;4.504;2022-07-06T17:36:17;1.94;;;1.94;;
71176;SDS011;58877;51.992;4.504;2022-07-06T17:38:51;2.34;;;2.34;;
71176;SDS011;58877;51.992;4.504;2022-07-06T17:41:30;2.40;;;2.40;;
71176;SDS011;58877;51.992;4.504;2022-07-06T17:44:31;2.53;;;2.53;;
71176;SDS011;58877;51.992;4.504;2022-07-06T17:47:05;2.72;;;2.72;;
71176;SDS011;58877;51.992;4.504;2022-07-06T17:49:49;2.74;;;2.74;;
71176;SDS011;58877;51.992;4.504;2022-07-06T17:53:10;2.96;;;2.96;;
71176;SDS011;58877;51.992;4.504;2022-07-06T17:55:23;2.74;;;2.74;;
71176;SDS011;58877;51.992;4.504;2022-07-06T18:00:54;2.90;;;2.90;;
71176;SDS011;58877;51.992;4.504;2022-07-06T18:03:50;3.01;;;3.01;;
71176;SDS011;58877;51.992;4.504;2022-07-06T18:06:32;2.96;;;2.96;;
71176;SDS011;58877;51.992;4.504;2022-07-06T18:09:21;3.04;;;3.04;;
71176;SDS011;58877;51.992;4.504;2022-07-06T18:12:02;3.07;;;3.07;;
71176;SDS011;58877;51.992;4.504;2022-07-06T18:15:10;3.17;;;3.17;;
71176;SDS011;58877;51.992;4.504;2022-07-06T18:17:52;3.33;;;3.33;;
71176;SDS011;58877;51.992;4.504;2022-07-06T18:20:38;3.24;;;3.24;;
71176;SDS011;58877;51.992;4.504;2022-07-06T18:23:14;3.43;;;3.43;;
71176;SDS011;58877;51.992;4.504;2022-07-06T18:25:52;3.57;;;3.57;;
71176;SDS011;58877;51.992;4.504;2022-07-06T18:28:20;3.49;;;3.49;;
71176;SDS011;58877;51.992;4.504;2022-07-06T18:30:50;3.47;;;3.47;;
71176;SDS011;58877;51.992;4.504;2022-07-06T18:34:13;3.71;;;3.71;;
71176;SDS011;58877;51.992;4.504;2022-07-06T18:37:00;4.11;;;4.11;;
71176;SDS011;58877;51.992;4.504;2022-07-06T18:39:28;4.63;;;4.63;;
71176;SDS011;58877;51.992;4.504;2022-07-06T18:41:54;4.23;;;4.23;;